• Join FlightAware (Why Join?)
  • Login
  • US Flag 
07:22AM EDT


 

Airport Tracker/Info


-or-


 

Live Flight TrackerFlight Track Log ✈ SKW5631 ✈ 26-Apr-2013 ✈ KSFO - KSBA

Flight Track Log - Related Links

Times and Time Zones

All times are in EDT time to prevent confusion due to time zone crossing. See the SKW5631 flight status page for this flight to view local times or setup timezone preferences in your user account.

Time Position Orientation Groundspeed Altitude Reporting Facility
EDT Latitude Longitude Course Direction KTS MPH feet Rate Location/Type
10:38AM 37.6500 -122.3667 360° North 148 170 1,400  Level Northern Cal TRACON
10:39AM 37.6833 -122.3667 360° North 183 211 3,000 1,800 Climbing Northern Cal TRACON
10:40AM 37.6833 -122.4167 270° West 212 244 4,900 1,800 Climbing Northern Cal TRACON
10:41AM 37.6167 -122.4167 180° South 219 252 6,500 1,620 Climbing Northern Cal TRACON
10:42AM 37.5750 -122.4181 182° South 221 254 7,600 1,740 Climbing Oakland Center
10:43AM 37.5158 -122.4233 184° South 216 249 9,600 1,620 Climbing Oakland Center
10:44AM 37.4539 -122.4244 181° South 221 254 11,000 1,320 Climbing Oakland Center
10:45AM 37.3872 -122.4278 182° South 238 274 12,400 1,320 Climbing Oakland Center
10:46AM 37.3206 -122.4317 183° South 241 277 13,800 1,260 Climbing Oakland Center
10:47AM 37.2536 -122.4350 182° South 241 277 15,000 1,080 Climbing Oakland Center
10:48AM 37.1858 -122.4397 183° South 244 281 16,100 1,080 Climbing Oakland Center
10:49AM 37.1164 -122.4425 182° South 248 285 17,300 1,080 Climbing Oakland Center
10:50AM 37.0533 -122.4189 163° South 255 293 18,300 960 Climbing Oakland Center
10:51AM 36.9983 -122.3736 147° Southeast 242 278 19,300 1,020 Climbing Oakland Center
10:52AM 36.9322 -122.3122 143° Southeast 246 283 20,400 960 Climbing Oakland Center
10:53AM 36.8764 -122.2583 142° Southeast 253 291 21,300 840 Climbing Oakland Center
10:54AM 36.8208 -122.2039 142° Southeast 256 295 22,200 720 Climbing Oakland Center
10:55AM 36.7644 -122.1481 142° Southeast 261 300 22,800 360 Climbing Oakland Center
10:56AM 36.7019 -122.0953 146° Southeast 271 312 23,000 60 Climbing Oakland Center
10:57AM 36.6383 -122.0322 141° Southeast 289 333 23,000  Level Oakland Center
10:58AM 36.5747 -121.9728 143° Southeast 288 331 23,000  Level Oakland Center
10:59AM 36.5119 -121.9131 143° Southeast 285 328 23,000  Level Oakland Center
11:00AM 36.4500 -121.8528 142° Southeast 284 327 23,000  Level Oakland Center
11:01AM 36.3831 -121.7919 144° Southeast 282 325 23,000  Level Oakland Center
11:02AM 36.3203 -121.7328 143° Southeast 282 325 23,000  Level Oakland Center
11:03AM 36.2581 -121.6744 143° Southeast 283 326 23,000  Level Oakland Center
11:04AM 36.1956 -121.6172 144° Southeast 280 322 23,000  Level Oakland Center
11:05AM 36.1208 -121.5456 142° Southeast 283 326 23,000  Level Oakland Center
11:06AM 36.0578 -121.4872 143° Southeast 284 327 23,000  Level Oakland Center
11:07AM 35.9950 -121.4283 143° Southeast 285 328 23,000  Level Oakland Center
11:08AM 35.9328 -121.3692 142° Southeast 283 326 23,000  Level Oakland Center
11:09AM 35.8694 -121.3103 143° Southeast 285 328 23,000  Level Oakland Center
11:10AM 35.8064 -121.2514 143° Southeast 285 328 23,000  Level Oakland Center
11:11AM 35.7447 -121.1908 141° Southeast 285 328 23,000  Level Oakland Center
11:12AM 35.6806 -121.1333 144° Southeast 286 329 23,000  Level Oakland Center
11:13AM 35.6175 -121.0747 143° Southeast 285 328 23,000  Level Oakland Center
11:14AM 35.5425 -121.0044 143° Southeast 284 327 23,000  Level Oakland Center
11:15AM 35.4794 -120.9483 144° Southeast 282 325 23,000  Level Oakland Center
11:16AM 35.4164 -120.8911 144° Southeast 283 326 23,000  Level Oakland Center
11:17AM 35.3536 -120.8336 143° Southeast 283 326 23,000  Level Oakland Center
11:18AM 35.3222 -120.8067 145° Southeast 282 325 23,000 -420 Level Los Angeles Center
11:19AM 35.2594 -120.7494 143° Southeast 281 323 22,400 -1,020 Descending Los Angeles Center
11:20AM 35.1892 -120.6864 144° Southeast 308 354 21,000 -1,800 Descending Los Angeles Center
11:21AM 35.1067 -120.6111 143° Southeast 309 356 18,800 -1,860 Descending Los Angeles Center
11:22AM 35.0389 -120.5467 142° Southeast 308 354 17,200 -1,560 Descending Los Angeles Center
11:24AM 34.9094 -120.4256 142° Southeast 290 334 14,100 -1,620 Descending Los Angeles Center
11:25AM 34.8461 -120.3694 144° Southeast 280 322 12,500 -1,680 Descending Los Angeles Center
11:26AM 34.7900 -120.3192 144° Southeast 265 305 11,000 -1,800 Descending Los Angeles Center
11:27AM 34.7375 -120.2758 146° Southeast 257 296 9,300 -1,560 Descending Los Angeles Center
11:27AM 34.7292 -120.2661 136° Southeast 258 297 9,100 -240 Descending Los Angeles Center
11:28AM 34.6711 -120.2186 146° Southeast 254 292 9,000 -180 Descending Los Angeles Center
11:29AM 34.6117 -120.1644 143° Southeast 228 262 8,800 -900 Descending Los Angeles Center
11:30AM 34.5606 -120.1183 143° Southeast 240 276 7,300 -1,440 Descending Los Angeles Center
11:31AM 34.5042 -120.0683 144° Southeast 239 275 6,000 -1,020 Descending Los Angeles Center
11:32AM 34.4586 -120.0283 144° Southeast 224 258 5,400 -780 Descending Los Angeles Center
11:32AM 34.4533 -120.0219 135° Southeast 228 262 5,100 -1,680 Descending Los Angeles Center
11:33AM 34.4319 -119.9953 134° Southeast 164 189 3,900 -1,560 Descending Los Angeles Center
11:33AM 34.4297 -119.9831 102° East 164 189 3,500 -1,680 Descending Los Angeles Center
11:34AM 34.4258 -119.9478 98° East 141 162 2,200 -1,860 Descending Los Angeles Center
11:35AM 34.4244 -119.9294 95° East 142 163 1,600 -1,320 Descending Los Angeles Center
11:35AM 34.4267 -119.9031 84° East 133 153 900 -1,020 Descending Los Angeles Center
11:36AM 34.4292 -119.8844 81° East 134 154 600 -720 Descending Los Angeles Center
11:38AM 34.4262 -119.8415 90° East  Level Estimated